createdAt,value
2022-12-08T00:01:50.639Z,83.57
2022-12-08T00:04:56.356Z,83.55
2022-12-08T00:08:00.632Z,83.93
2022-12-08T00:10:49.417Z,83.74
2022-12-08T00:13:35.683Z,83.79
2022-12-08T00:16:21.386Z,83.99
2022-12-08T00:19:06.990Z,83.78
2022-12-08T00:21:53.531Z,84.09
2022-12-08T00:24:40.684Z,83.80
2022-12-08T00:27:26.618Z,83.91
2022-12-08T00:30:12.465Z,84.09
2022-12-08T00:32:58.281Z,84.16
2022-12-08T00:35:43.682Z,84.03
2022-12-08T00:38:29.067Z,84.10
2022-12-08T00:41:17.263Z,84.35
2022-12-08T00:44:02.908Z,84.12
2022-12-08T00:46:49.223Z,84.30
2022-12-08T00:49:35.065Z,84.50
2022-12-08T00:52:20.889Z,84.32
2022-12-08T00:55:06.671Z,84.28
2022-12-08T00:57:52.241Z,84.41
2022-12-08T01:00:40.943Z,84.26
2022-12-08T01:03:26.625Z,84.54
2022-12-08T01:06:12.075Z,84.41
2022-12-08T01:08:57.564Z,84.45
2022-12-08T01:11:44.676Z,84.79
2022-12-08T01:14:29.992Z,84.55
2022-12-08T01:17:15.454Z,84.66
2022-12-08T01:20:02.142Z,84.54
2022-12-08T01:22:48.428Z,84.25
2022-12-08T01:25:34.881Z,84.10
2022-12-08T01:28:20.693Z,84.37
2022-12-08T01:31:11.730Z,83.97
2022-12-08T01:33:58.733Z,84.31
2022-12-08T01:36:44.917Z,84.37
2022-12-08T01:39:30.750Z,84.22
2022-12-08T01:42:22.193Z,84.13
2022-12-08T01:45:17.920Z,84.10
2022-12-08T01:48:10.278Z,84.16
2022-12-08T01:50:56.008Z,84.17
2022-12-08T01:53:41.579Z,84.30
2022-12-08T01:56:41.416Z,84.06
2022-12-08T01:59:30.631Z,84.28
2022-12-08T02:02:16.432Z,84.37
2022-12-08T02:05:03.159Z,84.08
2022-12-08T02:07:49.363Z,84.55
2022-12-08T02:10:38.066Z,84.33
2022-12-08T02:13:24.684Z,84.37
2022-12-08T02:16:17.071Z,84.61
2022-12-08T02:19:31.877Z,84.34
2022-12-08T02:22:40.545Z,84.29
2022-12-08T02:25:40.328Z,83.89
2022-12-08T02:28:44.570Z,83.43
2022-12-08T02:31:33.184Z,83.72
2022-12-08T02:34:42.835Z,83.83
2022-12-08T02:37:35.197Z,83.43
2022-12-08T02:40:36.741Z,83.06
2022-12-08T02:43:51.116Z,83.27
2022-12-08T02:46:43.238Z,82.69
2022-12-08T02:49:31.218Z,82.87
2022-12-08T02:52:19.823Z,82.64
2022-12-08T02:55:15.008Z,83.00
2022-12-08T02:58:22.313Z,83.24
2022-12-08T03:01:10.981Z,83.04
2022-12-08T03:04:11.605Z,83.35
2022-12-08T03:07:25.158Z,83.17
2022-12-08T03:10:19.123Z,83.59
2022-12-08T03:13:14.803Z,83.44
2022-12-08T03:16:02.857Z,83.70
2022-12-08T03:18:53.140Z,83.61
2022-12-08T03:21:40.345Z,83.30
2022-12-08T03:24:25.885Z,83.31
2022-12-08T03:27:16.854Z,83.63
2022-12-08T03:30:02.906Z,83.68
2022-12-08T03:33:15.706Z,83.41
2022-12-08T03:36:04.577Z,83.78
2022-12-08T03:38:52.958Z,83.61
2022-12-08T03:41:38.326Z,83.35
2022-12-08T03:44:23.607Z,83.04
2022-12-08T03:47:08.991Z,83.22
2022-12-08T03:49:54.368Z,82.91
2022-12-08T03:52:39.831Z,82.43
2022-12-08T03:55:25.233Z,82.60
2022-12-08T03:58:10.887Z,82.53
2022-12-08T04:00:56.063Z,82.86
2022-12-08T04:03:41.575Z,82.47
2022-12-08T04:06:26.966Z,82.60
2022-12-08T04:09:12.264Z,82.56
2022-12-08T04:11:57.614Z,82.58
2022-12-08T04:14:43.305Z,82.98
2022-12-08T04:17:28.979Z,82.69
2022-12-08T04:20:14.387Z,82.86
2022-12-08T04:22:59.787Z,82.47
2022-12-08T04:25:45.846Z,82.77
2022-12-08T04:28:31.716Z,82.31
2022-12-08T04:31:17.518Z,82.66
2022-12-08T04:34:03.034Z,82.29
2022-12-08T04:36:48.404Z,82.46
2022-12-08T04:39:33.783Z,82.43
2022-12-08T04:42:19.014Z,82.29
2022-12-08T04:45:05.078Z,82.70
2022-12-08T04:47:50.535Z,82.48
2022-12-08T04:50:35.777Z,82.93
2022-12-08T04:53:21.384Z,82.50
2022-12-08T04:56:12.204Z,82.49
2022-12-08T04:58:57.942Z,82.54
2022-12-08T05:01:43.492Z,82.86
2022-12-08T05:04:28.799Z,82.89
2022-12-08T05:07:14.290Z,82.93
2022-12-08T05:09:59.668Z,82.70
2022-12-08T05:12:45.060Z,82.06
2022-12-08T05:15:30.677Z,82.19
2022-12-08T05:18:16.561Z,82.43
2022-12-08T05:21:02.285Z,82.37
2022-12-08T05:23:48.044Z,81.74
2022-12-08T05:26:33.928Z,81.43
2022-12-08T05:29:19.617Z,81.50
2022-12-08T05:32:05.257Z,81.83
2022-12-08T05:34:50.518Z,81.22
2022-12-08T05:37:35.953Z,81.27
2022-12-08T05:40:21.288Z,80.89
2022-12-08T05:43:06.989Z,81.43
2022-12-08T05:45:52.736Z,81.29
2022-12-08T05:48:39.071Z,80.91
2022-12-08T05:51:24.618Z,81.28
2022-12-08T05:54:10.692Z,80.95
2022-12-08T05:56:56.049Z,81.38
2022-12-08T05:59:41.481Z,80.97
2022-12-08T06:02:36.061Z,80.69
2022-12-08T06:05:23.573Z,80.78
2022-12-08T06:08:10.232Z,80.81
2022-12-08T06:10:55.802Z,80.60
2022-12-08T06:13:41.142Z,80.34
2022-12-08T06:16:28.408Z,80.26
2022-12-08T06:19:25.783Z,80.81
2022-12-08T06:22:14.502Z,80.56
2022-12-08T06:24:59.737Z,80.30
2022-12-08T06:27:45.195Z,80.67
2022-12-08T06:31:02.736Z,80.87
2022-12-08T06:33:49.495Z,80.68
2022-12-08T06:36:35.657Z,80.50
2022-12-08T06:39:21.546Z,80.73
2022-12-08T06:42:25.493Z,80.90
2022-12-08T06:45:11.766Z,80.71
2022-12-08T06:47:58.583Z,80.54
2022-12-08T06:50:44.849Z,80.56
2022-12-08T06:53:30.450Z,80.91
2022-12-08T06:56:16.390Z,80.14
2022-12-08T06:59:01.737Z,80.04
2022-12-08T07:01:47.773Z,80.86
2022-12-08T07:04:34.303Z,80.54
2022-12-08T07:07:20.612Z,80.37
2022-12-08T07:10:07.071Z,80.53
2022-12-08T07:12:52.943Z,80.85
2022-12-08T07:15:38.289Z,80.46
2022-12-08T07:18:24.514Z,81.00
2022-12-08T07:21:12.977Z,80.41
2022-12-08T07:23:58.725Z,80.50
2022-12-08T07:26:44.131Z,80.72
2022-12-08T07:29:29.424Z,80.56
2022-12-08T07:32:15.172Z,80.68
2022-12-08T07:35:00.889Z,80.41
2022-12-08T07:37:46.495Z,80.78
2022-12-08T07:40:33.002Z,80.20
2022-12-08T07:43:40.847Z,80.56
2022-12-08T07:46:29.544Z,80.33
2022-12-08T07:49:15.525Z,79.66
2022-12-08T07:52:02.395Z,80.06
2022-12-08T07:54:48.531Z,80.13
2022-12-08T07:57:35.265Z,80.23
2022-12-08T08:00:21.713Z,79.83
2022-12-08T08:03:08.953Z,79.78
2022-12-08T08:05:56.049Z,79.90
2022-12-08T08:08:41.614Z,79.74
2022-12-08T08:11:27.228Z,80.05
2022-12-08T08:14:13.014Z,79.84
2022-12-08T08:16:58.716Z,79.67
2022-12-08T08:19:46.411Z,79.40
2022-12-08T08:22:32.585Z,79.39
2022-12-08T08:25:20.368Z,79.67
2022-12-08T08:28:05.825Z,79.79
2022-12-08T08:30:52.759Z,79.70
2022-12-08T08:33:39.265Z,79.70
2022-12-08T08:36:25.835Z,79.34
2022-12-08T08:39:14.518Z,79.39
2022-12-08T08:42:04.533Z,79.33
2022-12-08T08:44:51.823Z,79.58
2022-12-08T08:47:37.630Z,79.31
2022-12-08T08:50:23.653Z,79.52
2022-12-08T08:53:09.317Z,79.36
2022-12-08T08:55:55.309Z,79.11
2022-12-08T08:58:42.215Z,79.33
2022-12-08T09:01:28.847Z,79.06
2022-12-08T09:04:14.806Z,78.98
2022-12-08T09:07:00.476Z,79.31
2022-12-08T09:09:46.357Z,78.85
2022-12-08T09:12:32.150Z,79.46
2022-12-08T09:15:20.510Z,78.91
2022-12-08T09:18:09.184Z,78.77
2022-12-08T09:20:57.070Z,78.17
2022-12-08T09:23:44.091Z,77.96
2022-12-08T09:26:30.252Z,77.64
2022-12-08T09:29:17.776Z,77.88
2022-12-08T09:32:05.665Z,77.98
2022-12-08T09:34:52.351Z,78.28
2022-12-08T09:37:38.114Z,77.81
2022-12-08T09:40:26.283Z,77.66
2022-12-08T09:43:51.948Z,77.42
2022-12-08T09:46:39.346Z,76.87
2022-12-08T09:49:41.265Z,77.40
2022-12-08T09:52:33.676Z,77.20
2022-12-08T09:55:30.196Z,76.60
2022-12-08T09:58:40.106Z,76.01
2022-12-08T10:01:35.243Z,76.06
2022-12-08T10:04:34.026Z,76.53
2022-12-08T10:07:43.737Z,77.05
2022-12-08T10:10:38.226Z,77.01
2022-12-08T10:18:18.425Z,76.74
2022-12-08T10:21:18.140Z,76.90
2022-12-08T10:24:11.778Z,76.78
2022-12-08T10:26:57.970Z,76.30
2022-12-08T10:29:43.469Z,76.34
2022-12-08T10:32:35.341Z,76.43
2022-12-08T10:35:22.662Z,75.99
2022-12-08T10:38:17.644Z,75.89
2022-12-08T10:41:11.424Z,75.99
2022-12-08T10:44:01.161Z,75.76
2022-12-08T10:46:47.047Z,76.02
2022-12-08T10:49:35.610Z,76.33
2022-12-08T10:52:25.067Z,75.82
2022-12-08T10:55:15.868Z,75.64
2022-12-08T10:58:01.723Z,75.09
2022-12-08T11:00:47.397Z,75.44
2022-12-08T11:03:36.700Z,74.83
2022-12-08T11:06:35.177Z,74.27
2022-12-08T11:09:21.170Z,73.72
2022-12-08T11:12:09.781Z,73.14
2022-12-08T11:15:03.457Z,72.93
2022-12-08T11:18:06.317Z,73.39
2022-12-08T11:21:08.078Z,73.79
2022-12-08T11:23:53.616Z,73.54
2022-12-08T11:26:39.190Z,72.82
2022-12-08T11:29:26.245Z,72.30
2022-12-08T11:32:14.023Z,72.06
2022-12-08T11:35:03.954Z,71.72
2022-12-08T11:37:49.412Z,71.34
2022-12-08T11:40:38.098Z,70.75
2022-12-08T11:43:33.429Z,70.85
2022-12-08T11:46:32.110Z,70.75
2022-12-08T11:49:18.894Z,71.09
2022-12-08T11:52:14.758Z,70.47
2022-12-08T11:55:40.672Z,70.44
2022-12-08T11:58:54.722Z,70.81
2022-12-08T12:01:42.686Z,70.92
2022-12-08T12:05:02.832Z,71.51
2022-12-08T12:08:07.321Z,70.85
2022-12-08T12:11:08.092Z,70.67
2022-12-08T12:14:11.879Z,70.14
2022-12-08T12:17:00.656Z,69.99
2022-12-08T12:19:48.467Z,70.65
2022-12-08T12:22:37.579Z,70.08
2022-12-08T12:25:26.646Z,69.93
2022-12-08T12:28:13.480Z,69.95
2022-12-08T12:31:05.322Z,69.05
2022-12-08T12:33:53.800Z,69.52
2022-12-08T12:36:53.505Z,69.10
2022-12-08T12:40:20.341Z,68.54
2022-12-08T12:43:06.190Z,68.99
2022-12-08T12:46:23.814Z,68.09
2022-12-08T12:49:40.956Z,68.07
2022-12-08T12:52:37.351Z,67.83
2022-12-08T12:55:27.054Z,67.92
2022-12-08T12:58:40.176Z,68.40
2022-12-08T13:01:41.808Z,68.32
2022-12-08T13:04:37.477Z,68.14
2022-12-08T13:07:28.787Z,68.70
2022-12-08T13:10:22.571Z,68.68
2022-12-08T13:13:10.899Z,68.30
2022-12-08T13:16:19.366Z,68.39
2022-12-08T13:19:15.811Z,68.70
2022-12-08T13:22:02.437Z,68.82
2022-12-08T13:24:48.293Z,68.74
2022-12-08T13:27:34.993Z,68.81
2022-12-08T13:30:45.550Z,68.48
2022-12-08T13:33:41.226Z,68.94
2022-12-08T13:36:33.743Z,68.92
2022-12-08T13:39:46.385Z,68.87
2022-12-08T13:42:47.306Z,68.90
2022-12-08T13:46:57.555Z,68.41
2022-12-08T13:50:32.419Z,67.75
2022-12-08T13:56:37.481Z,65.77
2022-12-08T13:58:33.803Z,65.70
2022-12-08T14:01:22.325Z,65.40
2022-12-08T14:04:54.455Z,66.25
2022-12-08T14:07:22.831Z,66.31
2022-12-08T14:10:14.706Z,66.00
2022-12-08T14:13:05.337Z,66.16
2022-12-08T14:15:51.115Z,75.78
2022-12-08T14:18:36.491Z,71.63
2022-12-08T14:21:22.888Z,68.83
2022-12-08T14:24:11.183Z,67.69
2022-12-08T14:27:00.515Z,67.25
2022-12-08T14:29:49.653Z,66.64
2022-12-08T14:32:39.329Z,67.04
2022-12-08T14:35:29.978Z,67.02
2022-12-08T14:38:18.254Z,67.04
2022-12-08T14:41:09.137Z,67.04
2022-12-08T14:44:04.089Z,67.42
2022-12-08T14:47:30.048Z,67.68
2022-12-08T14:50:42.628Z,67.52
2022-12-08T14:53:48.091Z,67.63
2022-12-08T14:56:39.431Z,68.16
2022-12-08T14:59:30.661Z,68.18
2022-12-08T15:02:16.089Z,68.19
2022-12-08T15:05:10.634Z,68.52
2022-12-08T15:08:03.085Z,68.50
2022-12-08T15:11:17.560Z,68.74
2022-12-08T15:14:03.878Z,68.57
2022-12-08T15:16:50.905Z,68.37
2022-12-08T15:19:36.318Z,68.36
2022-12-08T15:22:22.975Z,68.25
2022-12-08T15:25:13.791Z,68.32
2022-12-08T15:28:02.088Z,68.77
2022-12-08T15:30:48.955Z,69.21
2022-12-08T15:33:34.641Z,69.04
2022-12-08T15:36:20.026Z,68.86
2022-12-08T15:39:07.828Z,69.17
2022-12-08T15:41:53.309Z,69.42
2022-12-08T15:44:39.184Z,69.08
2022-12-08T15:47:25.735Z,69.34
2022-12-08T15:50:17.775Z,69.21
2022-12-08T15:53:03.678Z,69.28
2022-12-08T15:56:18.936Z,69.02
2022-12-08T15:58:56.553Z,68.94
2022-12-08T16:01:43.015Z,69.34
2022-12-08T16:05:17.943Z,69.26
2022-12-08T16:07:38.011Z,69.84
2022-12-08T16:10:35.438Z,69.76
2022-12-08T16:13:57.444Z,69.28
2022-12-08T16:16:44.786Z,69.37
2022-12-08T16:19:30.280Z,69.68
2022-12-08T16:25:36.417Z,69.72
2022-12-08T16:28:53.508Z,69.60
2022-12-08T16:31:37.687Z,70.15
2022-12-08T16:34:22.908Z,69.74
2022-12-08T16:37:20.278Z,70.78
2022-12-08T16:40:07.435Z,72.63
2022-12-08T16:42:52.976Z,71.45
2022-12-08T16:45:45.063Z,70.89
2022-12-08T16:48:31.107Z,70.34
2022-12-08T16:51:23.394Z,69.87
2022-12-08T16:54:12.445Z,69.51
2022-12-08T16:56:57.633Z,70.23
2022-12-08T16:59:43.194Z,70.23
2022-12-08T17:02:28.732Z,71.03
2022-12-08T17:05:17.263Z,71.34
2022-12-08T17:08:02.952Z,71.34
2022-12-08T17:11:07.202Z,71.89
2022-12-08T17:13:52.749Z,72.21
2022-12-08T17:16:38.563Z,71.84
2022-12-08T17:19:24.413Z,72.26
2022-12-08T17:22:10.120Z,71.74
2022-12-08T17:24:55.616Z,71.77
2022-12-08T17:27:42.211Z,71.52
2022-12-08T17:30:28.244Z,71.47
2022-12-08T17:33:13.221Z,71.57
2022-12-08T17:35:58.912Z,71.81
2022-12-08T17:38:44.504Z,71.79
2022-12-08T17:41:30.507Z,71.88
2022-12-08T17:44:20.882Z,71.79
2022-12-08T17:47:07.384Z,71.88
2022-12-08T17:49:53.106Z,71.91
2022-12-08T17:52:38.820Z,72.56
2022-12-08T17:55:24.655Z,72.59
2022-12-08T17:58:10.110Z,72.95
2022-12-08T18:00:55.836Z,72.78
2022-12-08T18:03:41.264Z,73.41
2022-12-08T18:06:31.216Z,72.87
2022-12-08T18:09:17.407Z,72.73
2022-12-08T18:12:03.271Z,72.65
2022-12-08T18:14:49.220Z,72.58
2022-12-08T18:17:34.771Z,72.15
2022-12-08T18:20:20.394Z,72.40
2022-12-08T18:23:05.875Z,72.17
2022-12-08T18:25:51.324Z,72.63
2022-12-08T18:28:38.055Z,72.68
2022-12-08T18:31:24.749Z,72.50
2022-12-08T18:34:10.250Z,73.13
2022-12-08T18:36:55.635Z,72.78
2022-12-08T18:39:41.713Z,73.18
2022-12-08T18:42:28.401Z,72.74
2022-12-08T18:45:22.129Z,72.96
2022-12-08T18:48:08.285Z,73.29
2022-12-08T18:50:54.075Z,73.20
2022-12-08T18:53:40.276Z,73.42
2022-12-08T18:56:28.766Z,73.43
2022-12-08T18:59:14.742Z,73.20
2022-12-08T19:02:00.618Z,73.24
2022-12-08T19:04:47.075Z,73.49
2022-12-08T19:07:32.587Z,73.74
2022-12-08T19:10:18.049Z,73.75
2022-12-08T19:13:04.581Z,74.16
2022-12-08T19:15:50.602Z,73.89
2022-12-08T19:18:36.253Z,74.18
2022-12-08T19:21:24.010Z,73.90
2022-12-08T19:24:10.305Z,73.77
2022-12-08T19:26:55.938Z,73.77
2022-12-08T19:29:41.453Z,73.73
2022-12-08T19:32:26.877Z,73.32
2022-12-08T19:35:12.900Z,73.11
2022-12-08T19:37:58.197Z,73.31
2022-12-08T19:41:03.373Z,72.83
2022-12-08T19:44:07.397Z,73.05
2022-12-08T19:46:52.773Z,72.86
2022-12-08T19:49:38.349Z,72.51
2022-12-08T19:52:24.505Z,72.90
2022-12-08T19:55:10.837Z,72.88
2022-12-08T19:58:01.806Z,72.91
2022-12-08T20:00:47.467Z,73.21
2022-12-08T20:03:34.310Z,72.84
2022-12-08T20:06:19.649Z,73.40
2022-12-08T20:09:05.766Z,72.96
2022-12-08T20:11:54.572Z,73.14
2022-12-08T20:14:45.457Z,72.92
2022-12-08T20:17:31.170Z,72.67
2022-12-08T20:20:16.667Z,72.63
2022-12-08T20:23:02.425Z,72.71
2022-12-08T20:25:48.264Z,72.95
2022-12-08T20:28:35.779Z,72.54
2022-12-08T20:31:27.692Z,72.79
2022-12-08T20:34:17.733Z,72.39
2022-12-08T20:37:03.519Z,72.06
2022-12-08T20:39:49.414Z,71.41
2022-12-08T20:42:35.544Z,71.60
2022-12-08T20:45:23.041Z,71.29
2022-12-08T20:48:08.728Z,71.83
2022-12-08T20:51:18.065Z,71.97
2022-12-08T20:54:09.691Z,71.91
2022-12-08T20:56:55.539Z,72.45
2022-12-08T20:59:41.284Z,72.31
2022-12-08T21:02:27.684Z,72.40
2022-12-08T21:05:13.365Z,71.89
2022-12-08T21:07:59.540Z,71.90
2022-12-08T21:10:46.473Z,72.54
2022-12-08T21:13:33.558Z,72.76
2022-12-08T21:16:23.381Z,72.48
2022-12-08T21:19:11.381Z,72.35
2022-12-08T21:21:57.412Z,72.64
2022-12-08T21:24:43.596Z,72.90
2022-12-08T21:27:29.707Z,72.46
2022-12-08T21:30:15.635Z,72.99
2022-12-08T21:33:01.404Z,72.67
2022-12-08T21:35:47.551Z,72.55
2022-12-08T21:38:33.893Z,72.66
2022-12-08T21:41:40.871Z,73.03
2022-12-08T21:44:27.461Z,73.04
2022-12-08T21:47:13.348Z,73.43
2022-12-08T21:49:59.417Z,73.22
2022-12-08T21:52:47.312Z,73.52
2022-12-08T21:55:33.304Z,73.13
2022-12-08T21:58:18.808Z,73.29
2022-12-08T22:01:11.450Z,73.13
2022-12-08T22:03:57.137Z,72.81
2022-12-08T22:06:43.173Z,73.29
2022-12-08T22:09:36.295Z,72.57
2022-12-08T22:12:26.189Z,72.97
2022-12-08T22:15:11.947Z,72.42
2022-12-08T22:17:58.004Z,72.70
2022-12-08T22:20:44.396Z,72.77
2022-12-08T22:23:30.075Z,72.08
2022-12-08T22:26:15.530Z,72.57
2022-12-08T22:29:01.348Z,72.84
2022-12-08T22:31:47.192Z,73.00
2022-12-08T22:34:33.180Z,72.90
2022-12-08T22:37:18.818Z,72.69
2022-12-08T22:40:06.417Z,72.59
2022-12-08T22:42:52.449Z,72.54
2022-12-08T22:45:37.718Z,72.97
2022-12-08T22:48:23.105Z,72.68
2022-12-08T22:51:08.811Z,73.12
2022-12-08T22:53:54.329Z,72.76
2022-12-08T22:56:39.912Z,73.33
2022-12-08T22:59:25.399Z,73.02
2022-12-08T23:02:10.953Z,73.13
2022-12-08T23:04:57.286Z,73.88
2022-12-08T23:07:43.094Z,73.86
2022-12-08T23:10:29.410Z,73.75
2022-12-08T23:13:15.236Z,73.53
2022-12-08T23:16:00.881Z,74.38
2022-12-08T23:18:46.947Z,74.25
2022-12-08T23:21:33.013Z,74.29
2022-12-08T23:24:18.682Z,74.76
2022-12-08T23:27:05.205Z,74.11
2022-12-08T23:29:51.860Z,73.87
2022-12-08T23:32:37.817Z,74.21
2022-12-08T23:35:23.705Z,74.31
2022-12-08T23:38:09.702Z,74.59
2022-12-08T23:40:59.741Z,74.30
2022-12-08T23:43:50.746Z,74.53
2022-12-08T23:46:36.409Z,74.47
2022-12-08T23:49:23.442Z,74.76
2022-12-08T23:52:12.825Z,74.16
2022-12-08T23:54:58.192Z,74.66
2022-12-08T23:57:43.691Z,74.01
